sensor_id;sensor_type;location;lat;lon;timestamp;P1;durP1;ratioP1;P2;durP2;ratioP2
17614;SDS011;8926;49.720;6.576;2022-07-23T00:02:21;4.13;;;3.83;;
17614;SDS011;8926;49.720;6.576;2022-07-23T00:04:46;4.80;;;4.50;;
17614;SDS011;8926;49.720;6.576;2022-07-23T00:07:11;4.47;;;4.17;;
17614;SDS011;8926;49.720;6.576;2022-07-23T00:09:36;4.77;;;4.50;;
17614;SDS011;8926;49.720;6.576;2022-07-23T00:12:02;4.17;;;3.97;;
17614;SDS011;8926;49.720;6.576;2022-07-23T00:14:27;4.57;;;4.27;;
17614;SDS011;8926;49.720;6.576;2022-07-23T00:16:52;4.17;;;3.93;;
17614;SDS011;8926;49.720;6.576;2022-07-23T00:19:18;4.57;;;4.20;;
17614;SDS011;8926;49.720;6.576;2022-07-23T00:21:43;4.10;;;3.87;;
17614;SDS011;8926;49.720;6.576;2022-07-23T00:24:08;4.63;;;4.37;;
17614;SDS011;8926;49.720;6.576;2022-07-23T00:26:34;4.20;;;3.90;;
17614;SDS011;8926;49.720;6.576;2022-07-23T00:28:59;4.27;;;4.07;;
17614;SDS011;8926;49.720;6.576;2022-07-23T00:31:24;3.80;;;3.60;;
17614;SDS011;8926;49.720;6.576;2022-07-23T00:33:49;5.20;;;4.90;;
17614;SDS011;8926;49.720;6.576;2022-07-23T00:36:15;5.60;;;5.30;;
17614;SDS011;8926;49.720;6.576;2022-07-23T00:38:40;4.90;;;4.60;;
17614;SDS011;8926;49.720;6.576;2022-07-23T00:41:05;4.90;;;4.60;;
17614;SDS011;8926;49.720;6.576;2022-07-23T00:43:31;5.13;;;4.83;;
17614;SDS011;8926;49.720;6.576;2022-07-23T00:45:56;5.37;;;5.07;;
17614;SDS011;8926;49.720;6.576;2022-07-23T00:48:21;5.37;;;5.07;;
17614;SDS011;8926;49.720;6.576;2022-07-23T00:50:47;4.60;;;4.40;;
17614;SDS011;8926;49.720;6.576;2022-07-23T00:53:12;4.63;;;4.43;;
17614;SDS011;8926;49.720;6.576;2022-07-23T00:55:38;4.90;;;4.60;;
17614;SDS011;8926;49.720;6.576;2022-07-23T00:58:04;5.10;;;4.80;;
17614;SDS011;8926;49.720;6.576;2022-07-23T01:00:30;4.30;;;4.10;;
17614;SDS011;8926;49.720;6.576;2022-07-23T01:02:55;4.43;;;4.20;;
17614;SDS011;8926;49.720;6.576;2022-07-23T01:05:20;4.83;;;4.60;;
17614;SDS011;8926;49.720;6.576;2022-07-23T01:07:49;5.03;;;4.73;;
17614;SDS011;8926;49.720;6.576;2022-07-23T01:10:16;4.70;;;4.50;;
17614;SDS011;8926;49.720;6.576;2022-07-23T01:12:57;4.47;;;4.27;;
17614;SDS011;8926;49.720;6.576;2022-07-23T01:15:24;4.77;;;4.47;;
17614;SDS011;8926;49.720;6.576;2022-07-23T01:17:49;5.27;;;4.97;;
17614;SDS011;8926;49.720;6.576;2022-07-23T01:20:15;5.97;;;5.57;;
17614;SDS011;8926;49.720;6.576;2022-07-23T01:22:41;5.67;;;5.37;;
17614;SDS011;8926;49.720;6.576;2022-07-23T01:25:07;5.83;;;5.50;;
17614;SDS011;8926;49.720;6.576;2022-07-23T01:27:33;6.57;;;6.17;;
17614;SDS011;8926;49.720;6.576;2022-07-23T01:29:59;6.47;;;6.07;;
17614;SDS011;8926;49.720;6.576;2022-07-23T01:32:25;6.17;;;5.80;;
17614;SDS011;8926;49.720;6.576;2022-07-23T01:34:50;6.10;;;5.70;;
17614;SDS011;8926;49.720;6.576;2022-07-23T01:37:16;6.07;;;5.77;;
17614;SDS011;8926;49.720;6.576;2022-07-23T01:39:41;6.47;;;6.07;;
17614;SDS011;8926;49.720;6.576;2022-07-23T01:42:06;5.20;;;4.90;;
17614;SDS011;8926;49.720;6.576;2022-07-23T01:44:32;4.90;;;4.60;;
17614;SDS011;8926;49.720;6.576;2022-07-23T01:46:57;5.30;;;5.00;;
17614;SDS011;8926;49.720;6.576;2022-07-23T01:49:22;5.60;;;5.30;;
17614;SDS011;8926;49.720;6.576;2022-07-23T01:51:48;5.50;;;5.10;;
17614;SDS011;8926;49.720;6.576;2022-07-23T01:54:26;5.17;;;4.87;;
17614;SDS011;8926;49.720;6.576;2022-07-23T01:56:52;5.30;;;5.00;;
17614;SDS011;8926;49.720;6.576;2022-07-23T01:59:17;5.40;;;5.10;;
17614;SDS011;8926;49.720;6.576;2022-07-23T02:01:42;6.00;;;5.60;;
17614;SDS011;8926;49.720;6.576;2022-07-23T02:04:08;6.23;;;5.83;;
17614;SDS011;8926;49.720;6.576;2022-07-23T02:06:33;5.40;;;5.10;;
17614;SDS011;8926;49.720;6.576;2022-07-23T02:08:58;5.90;;;5.50;;
17614;SDS011;8926;49.720;6.576;2022-07-23T02:11:23;5.00;;;4.70;;
17614;SDS011;8926;49.720;6.576;2022-07-23T02:13:49;5.90;;;5.50;;
17614;SDS011;8926;49.720;6.576;2022-07-23T02:16:14;5.27;;;4.97;;
17614;SDS011;8926;49.720;6.576;2022-07-23T02:18:39;5.00;;;4.70;;
17614;SDS011;8926;49.720;6.576;2022-07-23T02:21:04;5.20;;;4.90;;
17614;SDS011;8926;49.720;6.576;2022-07-23T02:23:30;4.70;;;4.50;;
17614;SDS011;8926;49.720;6.576;2022-07-23T02:25:55;4.80;;;4.50;;
17614;SDS011;8926;49.720;6.576;2022-07-23T02:28:20;5.67;;;5.27;;
17614;SDS011;8926;49.720;6.576;2022-07-23T02:30:45;4.70;;;4.50;;
17614;SDS011;8926;49.720;6.576;2022-07-23T02:33:11;5.60;;;5.30;;
17614;SDS011;8926;49.720;6.576;2022-07-23T02:35:36;5.00;;;4.70;;
17614;SDS011;8926;49.720;6.576;2022-07-23T02:38:01;5.40;;;4.90;;
17614;SDS011;8926;49.720;6.576;2022-07-23T02:40:26;8.00;;;7.50;;
17614;SDS011;8926;49.720;6.576;2022-07-23T02:42:52;7.30;;;6.83;;
17614;SDS011;8926;49.720;6.576;2022-07-23T02:45:17;6.70;;;6.20;;
17614;SDS011;8926;49.720;6.576;2022-07-23T02:47:42;6.13;;;5.83;;
17614;SDS011;8926;49.720;6.576;2022-07-23T02:50:08;6.40;;;6.00;;
17614;SDS011;8926;49.720;6.576;2022-07-23T02:52:33;5.60;;;5.30;;
17614;SDS011;8926;49.720;6.576;2022-07-23T02:54:58;5.20;;;4.83;;
17614;SDS011;8926;49.720;6.576;2022-07-23T02:57:24;5.33;;;5.00;;
17614;SDS011;8926;49.720;6.576;2022-07-23T02:59:49;5.33;;;4.93;;
17614;SDS011;8926;49.720;6.576;2022-07-23T03:02:14;5.17;;;4.87;;
17614;SDS011;8926;49.720;6.576;2022-07-23T03:04:39;5.20;;;4.90;;
17614;SDS011;8926;49.720;6.576;2022-07-23T03:07:07;5.13;;;4.83;;
17614;SDS011;8926;49.720;6.576;2022-07-23T03:09:32;4.97;;;4.67;;
17614;SDS011;8926;49.720;6.576;2022-07-23T03:11:58;5.53;;;5.23;;
17614;SDS011;8926;49.720;6.576;2022-07-23T03:14:23;5.87;;;5.47;;
17614;SDS011;8926;49.720;6.576;2022-07-23T03:16:48;4.90;;;4.63;;
17614;SDS011;8926;49.720;6.576;2022-07-23T03:19:14;5.20;;;4.90;;
17614;SDS011;8926;49.720;6.576;2022-07-23T03:21:40;4.67;;;4.43;;
17614;SDS011;8926;49.720;6.576;2022-07-23T03:24:07;5.40;;;5.10;;
17614;SDS011;8926;49.720;6.576;2022-07-23T03:26:34;5.30;;;5.00;;
17614;SDS011;8926;49.720;6.576;2022-07-23T03:28:59;5.20;;;4.90;;
17614;SDS011;8926;49.720;6.576;2022-07-23T03:31:26;4.70;;;4.40;;
17614;SDS011;8926;49.720;6.576;2022-07-23T03:33:51;5.93;;;5.63;;
17614;SDS011;8926;49.720;6.576;2022-07-23T03:36:16;5.10;;;4.80;;
17614;SDS011;8926;49.720;6.576;2022-07-23T03:38:42;5.33;;;5.03;;
17614;SDS011;8926;49.720;6.576;2022-07-23T03:41:07;5.10;;;4.80;;
17614;SDS011;8926;49.720;6.576;2022-07-23T03:43:33;5.70;;;5.30;;
17614;SDS011;8926;49.720;6.576;2022-07-23T03:45:58;5.37;;;5.07;;
17614;SDS011;8926;49.720;6.576;2022-07-23T03:48:23;5.30;;;5.00;;
17614;SDS011;8926;49.720;6.576;2022-07-23T03:50:49;5.43;;;5.13;;
17614;SDS011;8926;49.720;6.576;2022-07-23T03:53:14;5.37;;;5.07;;
17614;SDS011;8926;49.720;6.576;2022-07-23T03:55:39;6.03;;;5.70;;
17614;SDS011;8926;49.720;6.576;2022-07-23T03:58:04;4.97;;;4.67;;
17614;SDS011;8926;49.720;6.576;2022-07-23T04:00:30;5.30;;;5.00;;
17614;SDS011;8926;49.720;6.576;2022-07-23T04:02:55;5.20;;;4.90;;
17614;SDS011;8926;49.720;6.576;2022-07-23T04:05:20;5.60;;;5.20;;
17614;SDS011;8926;49.720;6.576;2022-07-23T04:07:46;5.37;;;5.07;;
17614;SDS011;8926;49.720;6.576;2022-07-23T04:10:11;5.70;;;5.40;;
17614;SDS011;8926;49.720;6.576;2022-07-23T04:12:36;5.30;;;5.00;;
17614;SDS011;8926;49.720;6.576;2022-07-23T04:15:02;5.43;;;5.13;;
17614;SDS011;8926;49.720;6.576;2022-07-23T04:17:28;5.23;;;4.93;;
17614;SDS011;8926;49.720;6.576;2022-07-23T04:19:53;5.27;;;4.97;;
17614;SDS011;8926;49.720;6.576;2022-07-23T04:22:18;5.57;;;5.17;;
17614;SDS011;8926;49.720;6.576;2022-07-23T04:24:44;5.73;;;5.33;;
17614;SDS011;8926;49.720;6.576;2022-07-23T04:27:09;5.57;;;5.27;;
17614;SDS011;8926;49.720;6.576;2022-07-23T04:29:34;5.40;;;5.10;;
17614;SDS011;8926;49.720;6.576;2022-07-23T04:32:00;5.27;;;4.97;;
17614;SDS011;8926;49.720;6.576;2022-07-23T04:34:25;5.30;;;5.00;;
17614;SDS011;8926;49.720;6.576;2022-07-23T04:36:51;5.40;;;5.10;;
17614;SDS011;8926;49.720;6.576;2022-07-23T04:39:17;6.23;;;5.83;;
17614;SDS011;8926;49.720;6.576;2022-07-23T04:41:42;6.00;;;5.60;;
17614;SDS011;8926;49.720;6.576;2022-07-23T04:44:07;6.20;;;5.80;;
17614;SDS011;8926;49.720;6.576;2022-07-23T04:46:33;5.73;;;5.43;;
17614;SDS011;8926;49.720;6.576;2022-07-23T04:48:58;5.73;;;5.33;;
17614;SDS011;8926;49.720;6.576;2022-07-23T04:51:23;6.13;;;5.73;;
17614;SDS011;8926;49.720;6.576;2022-07-23T04:53:49;5.40;;;5.10;;
17614;SDS011;8926;49.720;6.576;2022-07-23T04:56:14;5.93;;;5.53;;
17614;SDS011;8926;49.720;6.576;2022-07-23T04:58:40;5.70;;;5.30;;
17614;SDS011;8926;49.720;6.576;2022-07-23T05:01:05;5.03;;;4.73;;
17614;SDS011;8926;49.720;6.576;2022-07-23T05:03:31;7.40;;;6.90;;
17614;SDS011;8926;49.720;6.576;2022-07-23T05:05:56;6.80;;;6.37;;
17614;SDS011;8926;49.720;6.576;2022-07-23T05:08:21;6.17;;;5.77;;
17614;SDS011;8926;49.720;6.576;2022-07-23T05:10:46;5.90;;;5.50;;
17614;SDS011;8926;49.720;6.576;2022-07-23T05:13:13;6.40;;;6.00;;
17614;SDS011;8926;49.720;6.576;2022-07-23T05:15:40;6.17;;;5.77;;
17614;SDS011;8926;49.720;6.576;2022-07-23T05:18:05;5.80;;;5.40;;
17614;SDS011;8926;49.720;6.576;2022-07-23T05:20:30;4.77;;;4.47;;
17614;SDS011;8926;49.720;6.576;2022-07-23T05:22:56;4.87;;;4.57;;
17614;SDS011;8926;49.720;6.576;2022-07-23T05:25:21;5.50;;;5.20;;
17614;SDS011;8926;49.720;6.576;2022-07-23T05:27:46;6.30;;;5.87;;
17614;SDS011;8926;49.720;6.576;2022-07-23T05:30:12;6.87;;;6.47;;
17614;SDS011;8926;49.720;6.576;2022-07-23T05:32:37;8.10;;;7.57;;
17614;SDS011;8926;49.720;6.576;2022-07-23T05:35:04;7.60;;;7.10;;
17614;SDS011;8926;49.720;6.576;2022-07-23T05:37:30;6.93;;;6.43;;
17614;SDS011;8926;49.720;6.576;2022-07-23T05:39:55;7.17;;;6.73;;
17614;SDS011;8926;49.720;6.576;2022-07-23T05:42:25;6.40;;;5.93;;
17614;SDS011;8926;49.720;6.576;2022-07-23T05:44:51;6.03;;;5.63;;
17614;SDS011;8926;49.720;6.576;2022-07-23T05:47:16;8.07;;;7.47;;
17614;SDS011;8926;49.720;6.576;2022-07-23T05:49:42;6.90;;;6.40;;
17614;SDS011;8926;49.720;6.576;2022-07-23T05:52:08;8.70;;;8.00;;
17614;SDS011;8926;49.720;6.576;2022-07-23T05:54:34;6.83;;;6.40;;
17614;SDS011;8926;49.720;6.576;2022-07-23T05:57:00;6.80;;;6.40;;
17614;SDS011;8926;49.720;6.576;2022-07-23T05:59:25;7.67;;;7.17;;
17614;SDS011;8926;49.720;6.576;2022-07-23T06:01:50;7.63;;;7.03;;
17614;SDS011;8926;49.720;6.576;2022-07-23T06:04:16;7.10;;;6.53;;
17614;SDS011;8926;49.720;6.576;2022-07-23T06:06:41;7.73;;;7.13;;
17614;SDS011;8926;49.720;6.576;2022-07-23T06:09:06;7.37;;;6.87;;
17614;SDS011;8926;49.720;6.576;2022-07-23T06:11:31;7.10;;;6.60;;
17614;SDS011;8926;49.720;6.576;2022-07-23T06:13:57;7.47;;;6.87;;
17614;SDS011;8926;49.720;6.576;2022-07-23T06:16:22;6.83;;;6.33;;
17614;SDS011;8926;49.720;6.576;2022-07-23T06:18:48;6.10;;;5.70;;
17614;SDS011;8926;49.720;6.576;2022-07-23T06:21:13;6.20;;;5.80;;
17614;SDS011;8926;49.720;6.576;2022-07-23T06:23:38;6.20;;;5.80;;
17614;SDS011;8926;49.720;6.576;2022-07-23T06:26:03;7.80;;;7.20;;
17614;SDS011;8926;49.720;6.576;2022-07-23T06:28:29;6.67;;;6.27;;
17614;SDS011;8926;49.720;6.576;2022-07-23T06:30:54;6.80;;;6.30;;
17614;SDS011;8926;49.720;6.576;2022-07-23T06:33:19;6.30;;;5.90;;
17614;SDS011;8926;49.720;6.576;2022-07-23T06:35:44;7.47;;;6.97;;
17614;SDS011;8926;49.720;6.576;2022-07-23T06:38:10;5.30;;;5.00;;
17614;SDS011;8926;49.720;6.576;2022-07-23T06:40:35;5.70;;;5.37;;
17614;SDS011;8926;49.720;6.576;2022-07-23T06:43:00;6.20;;;5.80;;
17614;SDS011;8926;49.720;6.576;2022-07-23T06:45:26;5.60;;;5.20;;
17614;SDS011;8926;49.720;6.576;2022-07-23T06:47:51;6.53;;;6.03;;
17614;SDS011;8926;49.720;6.576;2022-07-23T06:50:16;5.60;;;5.20;;
17614;SDS011;8926;49.720;6.576;2022-07-23T06:52:42;5.67;;;5.27;;
17614;SDS011;8926;49.720;6.576;2022-07-23T06:55:07;6.00;;;5.60;;
17614;SDS011;8926;49.720;6.576;2022-07-23T06:57:32;6.27;;;5.77;;
17614;SDS011;8926;49.720;6.576;2022-07-23T06:59:58;6.43;;;5.93;;
17614;SDS011;8926;49.720;6.576;2022-07-23T07:02:23;4.83;;;4.53;;
17614;SDS011;8926;49.720;6.576;2022-07-23T07:04:48;4.57;;;4.27;;
17614;SDS011;8926;49.720;6.576;2022-07-23T07:07:14;5.17;;;4.80;;
17614;SDS011;8926;49.720;6.576;2022-07-23T07:09:40;5.63;;;5.23;;
17614;SDS011;8926;49.720;6.576;2022-07-23T07:12:05;4.23;;;3.97;;
17614;SDS011;8926;49.720;6.576;2022-07-23T07:14:30;3.60;;;3.40;;
17614;SDS011;8926;49.720;6.576;2022-07-23T07:16:56;3.90;;;3.60;;
17614;SDS011;8926;49.720;6.576;2022-07-23T07:19:21;5.70;;;5.20;;
17614;SDS011;8926;49.720;6.576;2022-07-23T07:21:46;4.10;;;3.83;;
17614;SDS011;8926;49.720;6.576;2022-07-23T07:24:12;3.90;;;3.70;;
17614;SDS011;8926;49.720;6.576;2022-07-23T07:26:37;4.50;;;4.20;;
17614;SDS011;8926;49.720;6.576;2022-07-23T07:29:04;4.20;;;4.00;;
17614;SDS011;8926;49.720;6.576;2022-07-23T07:31:29;5.07;;;4.77;;
17614;SDS011;8926;49.720;6.576;2022-07-23T07:33:55;5.10;;;4.70;;
17614;SDS011;8926;49.720;6.576;2022-07-23T07:36:21;4.50;;;4.30;;
17614;SDS011;8926;49.720;6.576;2022-07-23T07:38:47;4.63;;;4.33;;
17614;SDS011;8926;49.720;6.576;2022-07-23T07:41:12;4.50;;;4.20;;
17614;SDS011;8926;49.720;6.576;2022-07-23T07:43:38;4.87;;;4.53;;
17614;SDS011;8926;49.720;6.576;2022-07-23T07:46:03;4.80;;;4.50;;
17614;SDS011;8926;49.720;6.576;2022-07-23T07:48:29;5.97;;;5.57;;
17614;SDS011;8926;49.720;6.576;2022-07-23T07:50:54;4.57;;;4.30;;
17614;SDS011;8926;49.720;6.576;2022-07-23T07:53:20;4.83;;;4.53;;
17614;SDS011;8926;49.720;6.576;2022-07-23T07:55:45;5.93;;;5.47;;
17614;SDS011;8926;49.720;6.576;2022-07-23T07:58:10;4.90;;;4.57;;
17614;SDS011;8926;49.720;6.576;2022-07-23T08:00:36;5.17;;;4.87;;
17614;SDS011;8926;49.720;6.576;2022-07-23T08:03:01;5.10;;;4.80;;
17614;SDS011;8926;49.720;6.576;2022-07-23T08:05:28;4.83;;;4.53;;
17614;SDS011;8926;49.720;6.576;2022-07-23T08:07:54;4.67;;;4.30;;
17614;SDS011;8926;49.720;6.576;2022-07-23T08:10:20;5.47;;;5.07;;
17614;SDS011;8926;49.720;6.576;2022-07-23T08:12:47;4.50;;;4.30;;
17614;SDS011;8926;49.720;6.576;2022-07-23T08:15:15;5.10;;;4.70;;
17614;SDS011;8926;49.720;6.576;2022-07-23T08:17:42;4.40;;;4.10;;
17614;SDS011;8926;49.720;6.576;2022-07-23T08:20:09;4.70;;;4.40;;
17614;SDS011;8926;49.720;6.576;2022-07-23T08:25:23;4.87;;;4.57;;
17614;SDS011;8926;49.720;6.576;2022-07-23T08:27:53;4.33;;;4.07;;
17614;SDS011;8926;49.720;6.576;2022-07-23T08:30:19;4.00;;;3.73;;
17614;SDS011;8926;49.720;6.576;2022-07-23T08:35:28;4.10;;;3.90;;
17614;SDS011;8926;49.720;6.576;2022-07-23T08:37:53;4.00;;;3.70;;
17614;SDS011;8926;49.720;6.576;2022-07-23T08:40:19;3.63;;;3.43;;
17614;SDS011;8926;49.720;6.576;2022-07-23T08:42:48;4.20;;;3.90;;
17614;SDS011;8926;49.720;6.576;2022-07-23T08:45:15;3.77;;;3.57;;
17614;SDS011;8926;49.720;6.576;2022-07-23T08:47:43;3.83;;;3.53;;
17614;SDS011;8926;49.720;6.576;2022-07-23T08:50:09;4.37;;;4.10;;
17614;SDS011;8926;49.720;6.576;2022-07-23T08:52:36;4.00;;;3.70;;
17614;SDS011;8926;49.720;6.576;2022-07-23T08:55:03;4.33;;;3.93;;
17614;SDS011;8926;49.720;6.576;2022-07-23T08:57:29;4.20;;;3.90;;
17614;SDS011;8926;49.720;6.576;2022-07-23T08:59:54;3.57;;;3.37;;
17614;SDS011;8926;49.720;6.576;2022-07-23T09:02:20;3.43;;;3.23;;
17614;SDS011;8926;49.720;6.576;2022-07-23T09:04:46;4.60;;;4.40;;
17614;SDS011;8926;49.720;6.576;2022-07-23T09:07:11;4.37;;;4.10;;
17614;SDS011;8926;49.720;6.576;2022-07-23T09:09:37;3.70;;;3.50;;
17614;SDS011;8926;49.720;6.576;2022-07-23T09:12:06;4.10;;;3.87;;
17614;SDS011;8926;49.720;6.576;2022-07-23T09:14:40;3.90;;;3.70;;
17614;SDS011;8926;49.720;6.576;2022-07-23T09:17:10;3.90;;;3.60;;
17614;SDS011;8926;49.720;6.576;2022-07-23T09:19:41;3.20;;;3.00;;
17614;SDS011;8926;49.720;6.576;2022-07-23T09:22:17;3.20;;;3.00;;
17614;SDS011;8926;49.720;6.576;2022-07-23T09:25:02;3.50;;;3.30;;
17614;SDS011;8926;49.720;6.576;2022-07-23T09:27:44;3.73;;;3.53;;
17614;SDS011;8926;49.720;6.576;2022-07-23T09:30:36;3.80;;;3.50;;
17614;SDS011;8926;49.720;6.576;2022-07-23T09:33:10;4.30;;;4.10;;
17614;SDS011;8926;49.720;6.576;2022-07-23T09:38:12;3.63;;;3.43;;
17614;SDS011;8926;49.720;6.576;2022-07-23T09:40:37;4.10;;;3.90;;
17614;SDS011;8926;49.720;6.576;2022-07-23T09:43:03;3.77;;;3.57;;
17614;SDS011;8926;49.720;6.576;2022-07-23T09:45:28;4.40;;;4.10;;
17614;SDS011;8926;49.720;6.576;2022-07-23T09:48:09;4.43;;;4.17;;
17614;SDS011;8926;49.720;6.576;2022-07-23T09:50:44;4.97;;;4.67;;
17614;SDS011;8926;49.720;6.576;2022-07-23T09:53:10;3.93;;;3.63;;
17614;SDS011;8926;49.720;6.576;2022-07-23T09:55:48;3.80;;;3.60;;
17614;SDS011;8926;49.720;6.576;2022-07-23T09:58:14;3.70;;;3.50;;
17614;SDS011;8926;49.720;6.576;2022-07-23T10:00:41;4.23;;;3.97;;
17614;SDS011;8926;49.720;6.576;2022-07-23T10:03:07;4.07;;;3.87;;
17614;SDS011;8926;49.720;6.576;2022-07-23T10:05:33;4.20;;;3.90;;
17614;SDS011;8926;49.720;6.576;2022-07-23T10:08:01;3.90;;;3.60;;
17614;SDS011;8926;49.720;6.576;2022-07-23T10:10:27;3.50;;;3.30;;
17614;SDS011;8926;49.720;6.576;2022-07-23T10:12:55;3.83;;;3.63;;
17614;SDS011;8926;49.720;6.576;2022-07-23T10:15:27;4.80;;;4.50;;
17614;SDS011;8926;49.720;6.576;2022-07-23T10:17:52;4.60;;;4.30;;
17614;SDS011;8926;49.720;6.576;2022-07-23T10:20:18;5.17;;;4.77;;
17614;SDS011;8926;49.720;6.576;2022-07-23T10:25:38;4.07;;;3.87;;
17614;SDS011;8926;49.720;6.576;2022-07-23T10:34:10;4.70;;;4.40;;
17614;SDS011;8926;49.720;6.576;2022-07-23T10:36:49;4.13;;;3.93;;
17614;SDS011;8926;49.720;6.576;2022-07-23T10:41:53;4.87;;;4.57;;
17614;SDS011;8926;49.720;6.576;2022-07-23T10:44:40;4.23;;;4.03;;
17614;SDS011;8926;49.720;6.576;2022-07-23T10:47:08;4.90;;;4.50;;
17614;SDS011;8926;49.720;6.576;2022-07-23T10:49:40;3.97;;;3.77;;
17614;SDS011;8926;49.720;6.576;2022-07-23T10:54:43;4.10;;;3.90;;
17614;SDS011;8926;49.720;6.576;2022-07-23T10:57:17;5.80;;;5.47;;
17614;SDS011;8926;49.720;6.576;2022-07-23T11:02:30;4.37;;;4.17;;
17614;SDS011;8926;49.720;6.576;2022-07-23T11:05:07;5.40;;;5.10;;
17614;SDS011;8926;49.720;6.576;2022-07-23T11:07:33;5.67;;;5.27;;
17614;SDS011;8926;49.720;6.576;2022-07-23T11:09:59;4.77;;;4.47;;
17614;SDS011;8926;49.720;6.576;2022-07-23T11:18:16;5.03;;;4.63;;
17614;SDS011;8926;49.720;6.576;2022-07-23T11:20:17;6.03;;;5.63;;
17614;SDS011;8926;49.720;6.576;2022-07-23T11:25:14;5.60;;;5.30;;
17614;SDS011;8926;49.720;6.576;2022-07-23T11:27:55;4.67;;;4.37;;
17614;SDS011;8926;49.720;6.576;2022-07-23T11:35:38;4.40;;;4.17;;
17614;SDS011;8926;49.720;6.576;2022-07-23T11:38:12;3.67;;;3.47;;
17614;SDS011;8926;49.720;6.576;2022-07-23T11:40:38;3.60;;;3.40;;
17614;SDS011;8926;49.720;6.576;2022-07-23T11:43:07;4.80;;;4.40;;
17614;SDS011;8926;49.720;6.576;2022-07-23T11:45:38;3.80;;;3.60;;
17614;SDS011;8926;49.720;6.576;2022-07-23T11:48:25;3.33;;;3.03;;
17614;SDS011;8926;49.720;6.576;2022-07-23T11:50:52;4.23;;;3.93;;
17614;SDS011;8926;49.720;6.576;2022-07-23T11:53:23;3.40;;;3.20;;
17614;SDS011;8926;49.720;6.576;2022-07-23T11:56:09;4.63;;;4.33;;
17614;SDS011;8926;49.720;6.576;2022-07-23T11:58:36;3.17;;;3.07;;
17614;SDS011;8926;49.720;6.576;2022-07-23T12:01:02;5.07;;;4.67;;
17614;SDS011;8926;49.720;6.576;2022-07-23T12:03:27;5.07;;;4.77;;
17614;SDS011;8926;49.720;6.576;2022-07-23T12:05:56;3.67;;;3.47;;
17614;SDS011;8926;49.720;6.576;2022-07-23T12:08:23;3.10;;;2.97;;
17614;SDS011;8926;49.720;6.576;2022-07-23T12:10:48;3.37;;;3.17;;
17614;SDS011;8926;49.720;6.576;2022-07-23T12:13:15;4.17;;;3.97;;
17614;SDS011;8926;49.720;6.576;2022-07-23T12:15:47;3.40;;;3.20;;
17614;SDS011;8926;49.720;6.576;2022-07-23T12:18:16;3.70;;;3.50;;
17614;SDS011;8926;49.720;6.576;2022-07-23T12:20:44;3.77;;;3.57;;
17614;SDS011;8926;49.720;6.576;2022-07-23T12:23:13;3.43;;;3.23;;
17614;SDS011;8926;49.720;6.576;2022-07-23T12:25:40;4.00;;;3.70;;
17614;SDS011;8926;49.720;6.576;2022-07-23T12:30:39;3.60;;;3.40;;
17614;SDS011;8926;49.720;6.576;2022-07-23T12:33:04;3.43;;;3.23;;
17614;SDS011;8926;49.720;6.576;2022-07-23T12:35:41;3.50;;;3.30;;
17614;SDS011;8926;49.720;6.576;2022-07-23T12:38:10;3.97;;;3.77;;
17614;SDS011;8926;49.720;6.576;2022-07-23T12:40:40;4.37;;;4.17;;
17614;SDS011;8926;49.720;6.576;2022-07-23T12:43:09;3.90;;;3.70;;
17614;SDS011;8926;49.720;6.576;2022-07-23T12:48:27;5.37;;;4.93;;
17614;SDS011;8926;49.720;6.576;2022-07-23T12:51:01;5.53;;;5.23;;
17614;SDS011;8926;49.720;6.576;2022-07-23T12:53:44;4.13;;;3.90;;
17614;SDS011;8926;49.720;6.576;2022-07-23T12:56:16;3.80;;;3.60;;
17614;SDS011;8926;49.720;6.576;2022-07-23T12:58:44;6.93;;;6.53;;
17614;SDS011;8926;49.720;6.576;2022-07-23T13:03:54;4.27;;;3.97;;
17614;SDS011;8926;49.720;6.576;2022-07-23T13:06:24;6.57;;;6.17;;
17614;SDS011;8926;49.720;6.576;2022-07-23T13:08:50;6.50;;;6.10;;
17614;SDS011;8926;49.720;6.576;2022-07-23T13:11:16;4.53;;;4.20;;
17614;SDS011;8926;49.720;6.576;2022-07-23T13:13:41;4.70;;;4.40;;
17614;SDS011;8926;49.720;6.576;2022-07-23T13:16:07;4.80;;;4.50;;
17614;SDS011;8926;49.720;6.576;2022-07-23T13:18:32;4.70;;;4.40;;
17614;SDS011;8926;49.720;6.576;2022-07-23T13:20:57;5.93;;;5.63;;
17614;SDS011;8926;49.720;6.576;2022-07-23T13:23:23;6.47;;;6.07;;
17614;SDS011;8926;49.720;6.576;2022-07-23T13:25:49;6.50;;;6.00;;
17614;SDS011;8926;49.720;6.576;2022-07-23T13:28:15;5.57;;;5.27;;
17614;SDS011;8926;49.720;6.576;2022-07-23T13:30:41;5.77;;;5.47;;
17614;SDS011;8926;49.720;6.576;2022-07-23T13:33:08;4.50;;;4.30;;
17614;SDS011;8926;49.720;6.576;2022-07-23T13:35:34;5.10;;;4.80;;
17614;SDS011;8926;49.720;6.576;2022-07-23T13:38:02;4.03;;;3.83;;
17614;SDS011;8926;49.720;6.576;2022-07-23T13:40:32;3.83;;;3.63;;
17614;SDS011;8926;49.720;6.576;2022-07-23T13:42:59;5.33;;;4.97;;
17614;SDS011;8926;49.720;6.576;2022-07-23T13:45:24;4.93;;;4.63;;
17614;SDS011;8926;49.720;6.576;2022-07-23T13:47:51;4.27;;;3.97;;
17614;SDS011;8926;49.720;6.576;2022-07-23T13:50:17;5.00;;;4.63;;
17614;SDS011;8926;49.720;6.576;2022-07-23T13:52:42;4.50;;;4.20;;
17614;SDS011;8926;49.720;6.576;2022-07-23T13:55:08;3.73;;;3.53;;
17614;SDS011;8926;49.720;6.576;2022-07-23T13:57:33;3.47;;;3.27;;
17614;SDS011;8926;49.720;6.576;2022-07-23T13:59:59;3.73;;;3.53;;
17614;SDS011;8926;49.720;6.576;2022-07-23T14:02:24;4.60;;;4.30;;
17614;SDS011;8926;49.720;6.576;2022-07-23T14:04:51;6.00;;;5.60;;
17614;SDS011;8926;49.720;6.576;2022-07-23T14:07:16;5.83;;;5.47;;
17614;SDS011;8926;49.720;6.576;2022-07-23T14:09:42;5.87;;;5.57;;
17614;SDS011;8926;49.720;6.576;2022-07-23T14:12:08;6.23;;;5.83;;
17614;SDS011;8926;49.720;6.576;2022-07-23T14:14:34;4.87;;;4.57;;
17614;SDS011;8926;49.720;6.576;2022-07-23T14:16:59;6.03;;;5.73;;
17614;SDS011;8926;49.720;6.576;2022-07-23T14:19:25;6.37;;;5.93;;
17614;SDS011;8926;49.720;6.576;2022-07-23T14:21:50;5.50;;;5.20;;
17614;SDS011;8926;49.720;6.576;2022-07-23T14:24:16;4.40;;;4.13;;
17614;SDS011;8926;49.720;6.576;2022-07-23T14:26:42;5.50;;;5.10;;
17614;SDS011;8926;49.720;6.576;2022-07-23T14:29:07;5.73;;;5.33;;
17614;SDS011;8926;49.720;6.576;2022-07-23T14:31:33;5.20;;;4.90;;
17614;SDS011;8926;49.720;6.576;2022-07-23T14:33:58;5.10;;;4.80;;
17614;SDS011;8926;49.720;6.576;2022-07-23T14:36:24;5.80;;;5.50;;
17614;SDS011;8926;49.720;6.576;2022-07-23T14:38:50;5.30;;;5.00;;
17614;SDS011;8926;49.720;6.576;2022-07-23T14:41:16;5.00;;;4.70;;
17614;SDS011;8926;49.720;6.576;2022-07-23T14:43:41;4.80;;;4.50;;
17614;SDS011;8926;49.720;6.576;2022-07-23T14:46:07;5.10;;;4.80;;
17614;SDS011;8926;49.720;6.576;2022-07-23T14:48:32;4.00;;;3.80;;
17614;SDS011;8926;49.720;6.576;2022-07-23T14:50:57;5.23;;;4.93;;
17614;SDS011;8926;49.720;6.576;2022-07-23T14:53:23;5.77;;;5.37;;
17614;SDS011;8926;49.720;6.576;2022-07-23T14:55:48;6.00;;;5.60;;
17614;SDS011;8926;49.720;6.576;2022-07-23T14:58:13;4.80;;;4.50;;
17614;SDS011;8926;49.720;6.576;2022-07-23T15:00:39;4.43;;;4.13;;
17614;SDS011;8926;49.720;6.576;2022-07-23T15:03:04;3.80;;;3.60;;
17614;SDS011;8926;49.720;6.576;2022-07-23T15:05:29;3.40;;;3.20;;
17614;SDS011;8926;49.720;6.576;2022-07-23T15:07:55;3.10;;;2.90;;
17614;SDS011;8926;49.720;6.576;2022-07-23T15:10:20;3.13;;;2.93;;
17614;SDS011;8926;49.720;6.576;2022-07-23T15:12:46;3.70;;;3.50;;
17614;SDS011;8926;49.720;6.576;2022-07-23T15:15:11;3.47;;;3.27;;
17614;SDS011;8926;49.720;6.576;2022-07-23T15:17:38;3.27;;;3.07;;
17614;SDS011;8926;49.720;6.576;2022-07-23T15:20:03;5.50;;;5.20;;
17614;SDS011;8926;49.720;6.576;2022-07-23T15:22:30;4.70;;;4.50;;
17614;SDS011;8926;49.720;6.576;2022-07-23T15:24:56;4.67;;;4.37;;
17614;SDS011;8926;49.720;6.576;2022-07-23T15:27:21;5.60;;;5.20;;
17614;SDS011;8926;49.720;6.576;2022-07-23T15:29:46;7.27;;;6.80;;
17614;SDS011;8926;49.720;6.576;2022-07-23T15:32:12;5.33;;;4.93;;
17614;SDS011;8926;49.720;6.576;2022-07-23T15:34:37;5.00;;;4.70;;
17614;SDS011;8926;49.720;6.576;2022-07-23T15:37:03;4.40;;;4.20;;
17614;SDS011;8926;49.720;6.576;2022-07-23T15:39:30;3.63;;;3.43;;
17614;SDS011;8926;49.720;6.576;2022-07-23T15:41:57;3.37;;;3.17;;
17614;SDS011;8926;49.720;6.576;2022-07-23T15:44:23;3.23;;;3.03;;